createdAt,value
2018-02-03T00:00:33.612Z,937.16
2018-02-03T00:01:33.588Z,937.15
2018-02-03T00:02:33.589Z,937.16
2018-02-03T00:03:33.573Z,937.17
2018-02-03T00:04:33.560Z,937.14
2018-02-03T00:05:33.554Z,937.16
2018-02-03T00:06:33.538Z,937.14
2018-02-03T00:07:33.525Z,937.15
2018-02-03T00:08:33.514Z,937.11
2018-02-03T00:09:33.500Z,937.10
2018-02-03T00:10:33.488Z,937.10
2018-02-03T00:11:33.465Z,937.13
2018-02-03T00:12:33.461Z,937.11
2018-02-03T00:13:33.452Z,937.13
2018-02-03T00:14:33.428Z,937.15
2018-02-03T00:15:33.428Z,937.15
2018-02-03T00:16:33.411Z,937.16
2018-02-03T00:17:33.418Z,937.15
2018-02-03T00:18:33.392Z,937.14
2018-02-03T00:19:33.373Z,937.16
2018-02-03T00:20:33.363Z,937.13
2018-02-03T00:21:33.351Z,937.13
2018-02-03T00:22:33.337Z,937.13
2018-02-03T00:23:33.328Z,937.07
2018-02-03T00:24:33.329Z,937.10
2018-02-03T00:25:33.298Z,937.11
2018-02-03T00:26:33.300Z,937.07
2018-02-03T00:27:33.277Z,937.10
2018-02-03T00:28:33.264Z,937.11
2018-02-03T00:29:33.343Z,937.14
2018-02-03T00:30:33.236Z,937.11
2018-02-03T00:31:33.226Z,937.10
2018-02-03T00:32:33.216Z,937.13
2018-02-03T00:33:33.205Z,937.10
2018-02-03T00:34:33.190Z,937.09
2018-02-03T00:35:33.177Z,937.08
2018-02-03T00:36:33.174Z,937.04
2018-02-03T00:37:33.152Z,937.04
2018-02-03T00:38:33.135Z,937.05
2018-02-03T00:39:33.124Z,937.09
2018-02-03T00:40:33.116Z,937.04
2018-02-03T00:41:33.093Z,937.06
2018-02-03T00:42:33.088Z,937.02
2018-02-03T00:43:33.072Z,937.04
2018-02-03T00:44:33.105Z,937.03
2018-02-03T00:45:33.053Z,937.03
2018-02-03T00:46:33.034Z,937.02
2018-02-03T00:47:33.022Z,937.03
2018-02-03T00:48:33.009Z,937.01
2018-02-03T00:49:32.995Z,937.03
2018-02-03T00:50:32.980Z,937.01
2018-02-03T00:51:32.973Z,937.03
2018-02-03T00:52:32.957Z,937.06
2018-02-03T00:53:32.949Z,937.06
2018-02-03T00:54:32.932Z,937.06
2018-02-03T00:55:32.917Z,937.04
2018-02-03T00:56:32.898Z,937.01
2018-02-03T00:57:32.891Z,937.01
2018-02-03T00:58:32.878Z,937.05
2018-02-03T00:59:32.864Z,937.02
2018-02-03T01:00:32.856Z,937.08
2018-02-03T01:01:32.844Z,937.07
2018-02-03T01:02:32.832Z,937.03
2018-02-03T01:03:32.816Z,937.03
2018-02-03T01:04:32.797Z,937.03
2018-02-03T01:05:32.787Z,937.00
2018-02-03T01:06:32.820Z,937.07
2018-02-03T01:07:32.761Z,937.01
2018-02-03T01:08:32.748Z,937.04
2018-02-03T01:09:32.733Z,937.04
2018-02-03T01:10:32.738Z,937.06
2018-02-03T01:11:32.712Z,937.05
2018-02-03T01:12:32.698Z,937.12
2018-02-03T01:13:32.683Z,937.09
2018-02-03T01:14:32.671Z,937.08
2018-02-03T01:15:32.667Z,937.07
2018-02-03T01:16:32.662Z,937.06
2018-02-03T01:17:32.633Z,937.06
2018-02-03T01:18:32.615Z,937.04
2018-02-03T01:19:32.616Z,937.08
2018-02-03T01:20:32.597Z,937.04
2018-02-03T01:21:32.575Z,937.07
2018-02-03T01:22:32.565Z,937.02
2018-02-03T01:23:32.545Z,936.99
2018-02-03T01:24:32.539Z,937.06
2018-02-03T01:25:32.520Z,937.00
2018-02-03T01:26:32.532Z,937.03
2018-02-03T01:27:32.501Z,937.01
2018-02-03T01:28:32.497Z,936.97
2018-02-03T01:29:32.470Z,937.04
2018-02-03T01:30:32.460Z,937.00
2018-02-03T01:31:32.458Z,937.00
2018-02-03T01:32:32.442Z,936.98
2018-02-03T01:33:32.420Z,936.97
2018-02-03T01:34:32.405Z,936.94
2018-02-03T01:35:32.392Z,936.95
2018-02-03T01:36:32.376Z,936.93
2018-02-03T01:37:32.372Z,936.93
2018-02-03T01:38:32.358Z,936.90
2018-02-03T01:39:32.342Z,936.89
2018-02-03T01:40:32.331Z,936.92
2018-02-03T01:41:32.377Z,936.87
2018-02-03T01:42:32.386Z,936.89
2018-02-03T01:43:32.281Z,936.87
2018-02-03T01:44:32.273Z,936.84
2018-02-03T01:45:32.262Z,936.88
2018-02-03T01:46:32.242Z,936.81
2018-02-03T01:47:32.251Z,936.83
2018-02-03T01:48:32.222Z,936.84
2018-02-03T01:49:32.204Z,936.82
2018-02-03T01:50:32.192Z,936.81
2018-02-03T01:51:32.183Z,936.83
2018-02-03T01:52:32.165Z,936.80
2018-02-03T01:53:32.152Z,936.82
2018-02-03T01:54:32.139Z,936.77
2018-02-03T01:55:32.126Z,936.82
2018-02-03T01:56:32.114Z,936.83
2018-02-03T01:57:32.099Z,936.80
2018-02-03T01:58:32.086Z,936.82
2018-02-03T01:59:32.070Z,936.78
2018-02-03T02:00:32.059Z,936.83
2018-02-03T02:01:32.822Z,936.77
2018-02-03T02:02:32.032Z,936.82
2018-02-03T02:03:32.022Z,936.77
2018-02-03T02:04:32.009Z,936.75
2018-02-03T02:05:31.995Z,936.76
2018-02-03T02:06:31.980Z,936.75
2018-02-03T02:07:31.984Z,936.72
2018-02-03T02:08:31.954Z,936.72
2018-02-03T02:09:31.955Z,936.73
2018-02-03T02:10:31.923Z,936.72
2018-02-03T02:11:31.911Z,936.74
2018-02-03T02:12:31.901Z,936.69
2018-02-03T02:13:31.904Z,936.68
2018-02-03T02:14:31.875Z,936.70
2018-02-03T02:15:31.860Z,936.67
2018-02-03T02:16:31.850Z,936.66
2018-02-03T02:17:31.833Z,936.63
2018-02-03T02:18:31.823Z,936.60
2018-02-03T02:19:31.803Z,936.61
2018-02-03T02:20:31.793Z,936.60
2018-02-03T02:21:31.782Z,936.56
2018-02-03T02:22:31.765Z,936.53
2018-02-03T02:23:31.751Z,936.53
2018-02-03T02:24:31.741Z,936.50
2018-02-03T02:25:31.737Z,936.51
2018-02-03T02:26:31.854Z,936.48
2018-02-03T02:27:31.701Z,936.47
2018-02-03T02:28:31.712Z,936.45
2018-02-03T02:29:31.687Z,936.44
2018-02-03T02:30:31.687Z,936.40
2018-02-03T02:31:31.691Z,936.41
2018-02-03T02:32:31.637Z,936.41
2018-02-03T02:33:31.640Z,936.36
2018-02-03T02:34:31.684Z,936.34
2018-02-03T02:35:31.685Z,936.31
2018-02-03T02:36:31.684Z,936.34
2018-02-03T02:37:31.690Z,936.30
2018-02-03T02:38:31.660Z,936.30
2018-02-03T02:39:31.677Z,936.26
2018-02-03T02:40:31.556Z,936.27
2018-02-03T02:41:31.526Z,936.27
2018-02-03T02:42:31.508Z,936.25
2018-02-03T02:43:31.527Z,936.27
2018-02-03T02:44:31.513Z,936.28
2018-02-03T02:45:31.527Z,936.23
2018-02-03T02:46:31.454Z,936.25
2018-02-03T02:47:31.477Z,936.19
2018-02-03T02:48:31.515Z,936.20
2018-02-03T02:49:31.445Z,936.19
2018-02-03T02:50:31.415Z,936.21
2018-02-03T02:51:31.425Z,936.24
2018-02-03T02:52:31.378Z,936.22
2018-02-03T02:53:31.438Z,936.27
2018-02-03T02:54:31.449Z,936.22
2018-02-03T02:55:31.394Z,936.30
2018-02-03T02:56:31.328Z,936.26
2018-02-03T02:57:31.464Z,936.26
2018-02-03T02:58:31.320Z,936.28
2018-02-03T02:59:31.476Z,936.28
2018-02-03T03:00:31.300Z,936.25
2018-02-03T03:01:31.272Z,936.27
2018-02-03T03:02:31.269Z,936.24
2018-02-03T03:03:31.266Z,936.26
2018-02-03T03:04:31.261Z,936.23
2018-02-03T03:05:31.249Z,936.24
2018-02-03T03:06:31.216Z,936.22
2018-02-03T03:07:31.221Z,936.23
2018-02-03T03:08:31.220Z,936.21
2018-02-03T03:09:31.236Z,936.21
2018-02-03T03:10:31.246Z,936.18
2018-02-03T03:11:31.140Z,936.25
2018-02-03T03:12:31.164Z,936.25
2018-02-03T03:13:31.159Z,936.28
2018-02-03T03:14:31.168Z,936.31
2018-02-03T03:15:31.096Z,936.37
2018-02-03T03:16:31.157Z,936.40
2018-02-03T03:17:31.059Z,936.39
2018-02-03T03:18:31.181Z,936.41
2018-02-03T03:19:31.104Z,936.37
2018-02-03T03:20:31.105Z,936.40
2018-02-03T03:21:31.025Z,936.42
2018-02-03T03:22:30.995Z,936.42
2018-02-03T03:23:31.018Z,936.41
2018-02-03T03:24:31.010Z,936.43
2018-02-03T03:25:31.030Z,936.38
2018-02-03T03:26:30.954Z,936.41
2018-02-03T03:27:31.034Z,936.37
2018-02-03T03:28:31.030Z,936.40
2018-02-03T03:29:30.956Z,936.40
2018-02-03T03:30:31.030Z,936.40
2018-02-03T03:31:30.952Z,936.41
2018-02-03T03:32:30.869Z,936.45
2018-02-03T03:33:30.891Z,936.45
2018-02-03T03:34:30.882Z,936.45
2018-02-03T03:35:30.897Z,936.41
2018-02-03T03:36:30.827Z,936.40
2018-02-03T03:37:30.820Z,936.39
2018-02-03T03:38:30.910Z,936.36
2018-02-03T03:39:30.865Z,936.36
2018-02-03T03:40:30.924Z,936.41
2018-02-03T03:41:30.931Z,936.36
2018-02-03T03:42:30.736Z,936.39
2018-02-03T03:43:30.744Z,936.37
2018-02-03T03:44:30.754Z,936.35
2018-02-03T03:45:30.762Z,936.37
2018-02-03T03:46:30.769Z,936.34
2018-02-03T03:47:30.676Z,936.34
2018-02-03T03:48:30.715Z,936.33
2018-02-03T03:49:30.727Z,936.33
2018-02-03T03:50:30.729Z,936.35
2018-02-03T03:51:30.731Z,936.30
2018-02-03T03:52:30.702Z,936.31
2018-02-03T03:53:30.598Z,936.30
2018-02-03T03:54:30.611Z,936.30
2018-02-03T03:55:30.619Z,936.29
2018-02-03T03:56:30.562Z,936.25
2018-02-03T03:57:30.625Z,936.30
2018-02-03T03:58:30.556Z,936.27
2018-02-03T03:59:30.546Z,936.29
2018-02-03T04:00:30.549Z,936.31
2018-02-03T04:01:30.503Z,936.29
2018-02-03T04:02:30.569Z,936.28
2018-02-03T04:03:30.498Z,936.24
2018-02-03T04:04:30.547Z,936.28
2018-02-03T04:05:30.478Z,936.20
2018-02-03T04:06:30.486Z,936.20
2018-02-03T04:07:30.422Z,936.24
2018-02-03T04:08:30.436Z,936.21
2018-02-03T04:09:30.420Z,936.19
2018-02-03T04:10:30.420Z,936.21
2018-02-03T04:11:30.414Z,936.20
2018-02-03T04:12:30.352Z,936.15
2018-02-03T04:13:30.427Z,936.14
2018-02-03T04:14:30.402Z,936.15
2018-02-03T04:15:30.320Z,936.11
2018-02-03T04:16:30.308Z,936.10
2018-02-03T04:17:30.352Z,936.07
2018-02-03T04:18:30.360Z,936.00
2018-02-03T04:19:30.339Z,936.05
2018-02-03T04:20:30.254Z,935.97
2018-02-03T04:21:30.277Z,935.99
2018-02-03T04:22:30.234Z,936.02
2018-02-03T04:23:30.287Z,935.98
2018-02-03T04:24:30.296Z,935.96
2018-02-03T04:25:30.254Z,935.92
2018-02-03T04:26:30.183Z,935.94
2018-02-03T04:27:30.232Z,935.92
2018-02-03T04:28:30.156Z,935.90
2018-02-03T04:29:30.225Z,935.88
2018-02-03T04:30:30.160Z,935.91
2018-02-03T04:31:30.239Z,935.87
2018-02-03T04:32:30.236Z,935.88
2018-02-03T04:33:30.300Z,935.89
2018-02-03T04:34:30.159Z,935.90
2018-02-03T04:35:30.148Z,935.88
2018-02-03T04:36:30.072Z,935.88
2018-02-03T04:37:30.073Z,935.86
2018-02-03T04:38:30.040Z,935.87
2018-02-03T04:39:30.027Z,935.88
2018-02-03T04:40:30.074Z,935.86
2018-02-03T04:41:29.994Z,935.82
2018-02-03T04:42:30.061Z,935.85
2018-02-03T04:43:30.063Z,935.85
2018-02-03T04:44:30.064Z,935.82
2018-02-03T04:45:30.066Z,935.82
2018-02-03T04:46:29.956Z,935.81
2018-02-03T04:47:29.925Z,935.81
2018-02-03T04:48:29.943Z,935.80
2018-02-03T04:49:29.947Z,935.78
2018-02-03T04:50:29.948Z,935.80
2018-02-03T04:51:29.892Z,935.80
2018-02-03T04:52:29.859Z,935.77
2018-02-03T04:53:29.968Z,935.75
2018-02-03T04:54:29.971Z,935.81
2018-02-03T04:55:29.946Z,935.80
2018-02-03T04:56:29.984Z,935.83
2018-02-03T04:57:29.790Z,935.84
2018-02-03T04:58:29.788Z,935.85
2018-02-03T04:59:29.789Z,935.85
2018-02-03T05:00:29.791Z,935.86
2018-02-03T05:01:29.773Z,935.82
2018-02-03T05:02:29.731Z,935.85
2018-02-03T05:03:29.737Z,935.85
2018-02-03T05:04:29.728Z,935.90
2018-02-03T05:05:29.801Z,935.88
2018-02-03T05:06:29.799Z,935.83
2018-02-03T05:07:29.725Z,935.86
2018-02-03T05:08:29.724Z,935.85
2018-02-03T05:09:29.689Z,935.86
2018-02-03T05:10:29.678Z,935.85
2018-02-03T05:11:29.682Z,935.86
2018-02-03T05:12:29.603Z,935.83
2018-02-03T05:13:29.613Z,935.83
2018-02-03T05:14:29.595Z,935.84
2018-02-03T05:15:29.568Z,935.82
2018-02-03T05:16:29.614Z,935.85
2018-02-03T05:17:29.545Z,935.85
2018-02-03T05:18:29.575Z,935.83
2018-02-03T05:19:29.582Z,935.77
2018-02-03T05:20:29.539Z,935.84
2018-02-03T05:21:29.575Z,935.80
2018-02-03T05:22:29.481Z,935.80
2018-02-03T05:23:29.546Z,935.77
2018-02-03T05:24:29.517Z,935.76
2018-02-03T05:25:29.548Z,935.80
2018-02-03T05:26:29.430Z,935.80
2018-02-03T05:27:29.420Z,935.84
2018-02-03T05:28:29.487Z,935.85
2018-02-03T05:29:29.436Z,935.80
2018-02-03T05:30:29.479Z,935.78
2018-02-03T05:31:29.407Z,935.80
2018-02-03T05:32:29.359Z,935.80
2018-02-03T05:33:29.425Z,935.76
2018-02-03T05:34:29.408Z,935.78
2018-02-03T05:35:29.324Z,935.79
2018-02-03T05:36:29.404Z,935.75
2018-02-03T05:37:29.297Z,935.81
2018-02-03T05:38:29.350Z,935.79
2018-02-03T05:39:29.322Z,935.79
2018-02-03T05:40:29.306Z,935.77
2018-02-03T05:41:29.251Z,935.78
2018-02-03T05:42:29.277Z,935.78
2018-02-03T05:43:29.271Z,935.80
2018-02-03T05:44:29.299Z,935.79
2018-02-03T05:45:29.196Z,935.82
2018-02-03T05:46:29.230Z,935.78
2018-02-03T05:47:29.238Z,935.77
2018-02-03T05:48:29.156Z,935.77
2018-02-03T05:49:29.304Z,935.71
2018-02-03T05:50:29.146Z,935.72
2018-02-03T05:51:29.142Z,935.71
2018-02-03T05:52:29.126Z,935.71
2018-02-03T05:53:29.095Z,935.69
2018-02-03T05:54:29.148Z,935.76
2018-02-03T05:55:29.093Z,935.72
2018-02-03T05:56:29.093Z,935.71
2018-02-03T05:57:29.099Z,935.73
2018-02-03T05:58:29.036Z,935.74
2018-02-03T05:59:29.077Z,935.74
2018-02-03T06:00:29.083Z,935.77
2018-02-03T06:01:29.007Z,935.79
2018-02-03T06:02:29.100Z,935.77
2018-02-03T06:03:28.968Z,935.81
2018-02-03T06:04:29.011Z,935.82
2018-02-03T06:05:29.022Z,935.83
2018-02-03T06:06:29.005Z,935.82
2018-02-03T06:07:28.917Z,935.86
2018-02-03T06:08:29.028Z,935.88
2018-02-03T06:09:28.938Z,935.87
2018-02-03T06:10:28.898Z,935.88
2018-02-03T06:11:28.867Z,935.85
2018-02-03T06:12:28.857Z,935.83
2018-02-03T06:13:28.866Z,935.86
2018-02-03T06:14:28.871Z,935.85
2018-02-03T06:15:28.828Z,935.78
2018-02-03T06:16:28.883Z,935.82
2018-02-03T06:17:28.814Z,935.78
2018-02-03T06:18:28.838Z,935.74
2018-02-03T06:19:28.840Z,935.79
2018-02-03T06:20:28.806Z,935.79
2018-02-03T06:21:28.817Z,935.76
2018-02-03T06:22:28.759Z,935.75
2018-02-03T06:23:28.741Z,935.77
2018-02-03T06:24:28.752Z,935.78
2018-02-03T06:25:28.742Z,935.72
2018-02-03T06:26:28.798Z,935.77
2018-02-03T06:27:28.667Z,935.72
2018-02-03T06:28:28.723Z,935.74
2018-02-03T06:29:28.728Z,935.77
2018-02-03T06:30:28.713Z,935.76
2018-02-03T06:31:28.714Z,935.78
2018-02-03T06:32:28.675Z,935.79
2018-02-03T06:33:28.609Z,935.78
2018-02-03T06:34:28.589Z,935.76
2018-02-03T06:35:28.597Z,935.77
2018-02-03T06:36:28.604Z,935.77
2018-02-03T06:37:28.616Z,935.75
2018-02-03T06:38:28.597Z,935.82
2018-02-03T06:39:28.605Z,935.82
2018-02-03T06:40:28.579Z,935.79
2018-02-03T06:41:28.617Z,935.76
2018-02-03T06:42:28.614Z,935.82
2018-02-03T06:43:28.475Z,935.81
2018-02-03T06:44:29.375Z,935.79
2018-02-03T06:45:28.484Z,935.77
2018-02-03T06:46:28.446Z,935.79
2018-02-03T06:47:28.451Z,935.76
2018-02-03T06:48:28.482Z,935.77
2018-02-03T06:49:28.471Z,935.81
2018-02-03T06:50:28.476Z,935.79
2018-02-03T06:51:28.480Z,935.83
2018-02-03T06:52:28.409Z,935.77
2018-02-03T06:53:28.476Z,935.79
2018-02-03T06:54:28.378Z,935.82
2018-02-03T06:55:28.371Z,935.83
2018-02-03T06:56:28.365Z,935.80
2018-02-03T06:57:28.330Z,935.78
2018-02-03T06:58:28.338Z,935.82
2018-02-03T06:59:28.346Z,935.82
2018-02-03T07:00:28.264Z,935.87
2018-02-03T07:01:28.338Z,935.82
2018-02-03T07:02:28.269Z,935.82
2018-02-03T07:03:28.299Z,935.79
2018-02-03T07:04:28.359Z,935.81
2018-02-03T07:05:28.372Z,935.81
2018-02-03T07:06:28.257Z,935.80
2018-02-03T07:07:28.191Z,935.84
2018-02-03T07:08:28.205Z,935.82
2018-02-03T07:09:28.202Z,935.84
2018-02-03T07:10:28.194Z,935.87
2018-02-03T07:11:28.153Z,935.89
2018-02-03T07:12:28.179Z,935.93
2018-02-03T07:13:28.773Z,935.91
2018-02-03T07:14:28.136Z,935.92
2018-02-03T07:15:28.141Z,935.99
2018-02-03T07:16:28.129Z,935.98
2018-02-03T07:17:28.131Z,935.97
2018-02-03T07:18:28.067Z,936.01
2018-02-03T07:19:28.060Z,936.04
2018-02-03T07:20:28.078Z,936.01
2018-02-03T07:21:28.094Z,936.02
2018-02-03T07:22:28.855Z,936.03
2018-02-03T07:23:28.072Z,936.07
2018-02-03T07:24:28.108Z,936.05
2018-02-03T07:25:28.024Z,936.06
2018-02-03T07:26:28.937Z,936.03
2018-02-03T07:27:27.962Z,936.05
2018-02-03T07:28:27.930Z,936.06
2018-02-03T07:29:27.927Z,936.09
2018-02-03T07:30:28.776Z,936.15
2018-02-03T07:31:27.922Z,936.13
2018-02-03T07:32:27.878Z,936.15
2018-02-03T07:33:27.881Z,936.15
2018-02-03T07:34:27.886Z,936.18
2018-02-03T07:35:27.889Z,936.22
2018-02-03T07:36:27.886Z,936.21
2018-02-03T07:37:27.817Z,936.22
2018-02-03T07:38:27.823Z,936.24
2018-02-03T07:39:27.924Z,936.25
2018-02-03T07:40:27.811Z,936.24
2018-02-03T07:41:27.774Z,936.26
2018-02-03T07:42:27.764Z,936.28
2018-02-03T07:43:27.778Z,936.28
2018-02-03T07:44:27.800Z,936.22
2018-02-03T07:45:27.727Z,936.22
2018-02-03T07:46:27.777Z,936.26
2018-02-03T07:47:27.751Z,936.26
2018-02-03T07:48:27.690Z,936.22
2018-02-03T07:49:27.685Z,936.20
2018-02-03T07:50:27.762Z,936.20
2018-02-03T07:51:27.665Z,936.21
2018-02-03T07:52:27.671Z,936.23
2018-02-03T07:53:27.653Z,936.18
2018-02-03T07:54:27.644Z,936.16
2018-02-03T07:55:27.604Z,936.20
2018-02-03T07:56:27.582Z,936.20
2018-02-03T07:57:27.673Z,936.18
2018-02-03T07:58:27.660Z,936.20
2018-02-03T07:59:27.567Z,936.21
2018-02-03T08:00:27.530Z,936.26
2018-02-03T08:01:27.646Z,936.25
2018-02-03T08:02:27.510Z,936.30
2018-02-03T08:03:27.541Z,936.27
2018-02-03T08:04:27.490Z,936.26
2018-02-03T08:05:27.488Z,936.25
2018-02-03T08:06:28.398Z,936.29
2018-02-03T08:07:27.515Z,936.21
2018-02-03T08:08:27.484Z,936.27
2018-02-03T08:09:27.498Z,936.29
2018-02-03T08:10:27.496Z,936.23
2018-02-03T08:11:27.419Z,936.25
2018-02-03T08:12:27.404Z,936.28
2018-02-03T08:13:27.394Z,936.24
2018-02-03T08:14:27.405Z,936.22
2018-02-03T08:15:27.413Z,936.23
2018-02-03T08:16:27.391Z,936.20
2018-02-03T08:17:27.384Z,936.19
2018-02-03T08:18:27.414Z,936.18
2018-02-03T08:19:27.417Z,936.18
2018-02-03T08:20:27.417Z,936.16
2018-02-03T08:21:27.419Z,936.16
2018-02-03T08:22:27.418Z,936.12
2018-02-03T08:23:27.429Z,936.08
2018-02-03T08:24:27.322Z,936.06
2018-02-03T08:25:27.255Z,936.04
2018-02-03T08:26:27.315Z,936.08
2018-02-03T08:27:27.259Z,936.06
2018-02-03T08:28:27.227Z,936.04
2018-02-03T08:29:27.220Z,936.04
2018-02-03T08:30:27.281Z,936.02
2018-02-03T08:31:27.288Z,936.02
2018-02-03T08:32:27.215Z,936.02
2018-02-03T08:33:27.168Z,936.06
2018-02-03T08:34:27.158Z,936.05
2018-02-03T08:35:27.169Z,936.03
2018-02-03T08:36:27.920Z,936.04
2018-02-03T08:37:27.193Z,936.02
2018-02-03T08:38:27.155Z,936.02
2018-02-03T08:39:27.133Z,936.04
2018-02-03T08:40:27.096Z,936.03
2018-02-03T08:41:27.072Z,936.02
2018-02-03T08:42:27.781Z,936.03
2018-02-03T08:43:27.085Z,936.05
2018-02-03T08:44:27.142Z,936.02
2018-02-03T08:45:27.036Z,936.07
2018-02-03T08:46:27.041Z,935.97
2018-02-03T08:47:27.035Z,936.04
2018-02-03T08:48:27.030Z,936.06
2018-02-03T08:49:27.021Z,936.06
2018-02-03T08:50:27.009Z,936.03
2018-02-03T08:51:27.017Z,936.03
2018-02-03T08:52:27.014Z,936.04
2018-02-03T08:53:26.982Z,936.07
2018-02-03T08:54:26.968Z,936.06
2018-02-03T08:55:26.976Z,936.04
2018-02-03T08:56:26.946Z,936.06
2018-02-03T08:57:26.943Z,936.03
2018-02-03T08:58:26.916Z,936.09
2018-02-03T08:59:26.934Z,936.07
2018-02-03T09:00:26.948Z,936.07
2018-02-03T09:01:26.893Z,936.09
2018-02-03T09:02:26.846Z,936.11
2018-02-03T09:03:26.916Z,936.10
2018-02-03T09:04:26.871Z,936.05
2018-02-03T09:05:26.922Z,936.13
2018-02-03T09:06:26.856Z,936.09
2018-02-03T09:07:26.883Z,936.09
2018-02-03T09:08:26.836Z,936.06
2018-02-03T09:09:26.872Z,936.04
2018-02-03T09:10:26.920Z,936.01
2018-02-03T09:11:26.885Z,936.02
2018-02-03T09:12:26.957Z,936.00
2018-02-03T09:13:26.903Z,935.98
2018-02-03T09:14:26.782Z,935.95
2018-02-03T09:15:26.736Z,935.97
2018-02-03T09:16:26.762Z,935.99
2018-02-03T09:17:26.749Z,936.01
2018-02-03T09:18:26.722Z,936.01
2018-02-03T09:19:27.423Z,935.99
2018-02-03T09:20:26.674Z,936.02
2018-02-03T09:21:26.681Z,935.98
2018-02-03T09:22:26.679Z,936.02
2018-02-03T09:23:26.674Z,936.02
2018-02-03T09:24:26.684Z,936.04
2018-02-03T09:25:26.685Z,936.00
2018-02-03T09:26:26.651Z,936.04
2018-02-03T09:27:26.697Z,936.03
2018-02-03T09:28:26.621Z,936.05
2018-02-03T09:29:26.608Z,936.03
2018-02-03T09:30:26.601Z,936.05
2018-02-03T09:31:26.663Z,936.04
2018-02-03T09:32:26.660Z,936.07
2018-02-03T09:33:27.404Z,936.02
2018-02-03T09:34:26.674Z,936.03
2018-02-03T09:35:26.549Z,936.00
2018-02-03T09:36:26.549Z,936.01
2018-02-03T09:37:26.696Z,936.04
2018-02-03T09:38:26.522Z,936.01
2018-02-03T09:39:26.530Z,936.06
2018-02-03T09:40:26.513Z,936.07
2018-02-03T09:41:27.420Z,936.06
2018-02-03T09:42:26.474Z,936.06
2018-02-03T09:43:26.475Z,936.03
2018-02-03T09:44:26.476Z,936.10
2018-02-03T09:45:26.484Z,936.03
2018-02-03T09:46:26.470Z,936.10
2018-02-03T09:47:26.417Z,936.12
2018-02-03T09:48:26.439Z,936.13
2018-02-03T09:49:26.541Z,936.16
2018-02-03T09:50:27.395Z,936.17
2018-02-03T09:51:26.379Z,936.12
2018-02-03T09:52:26.412Z,936.16
2018-02-03T09:53:26.410Z,936.12
2018-02-03T09:54:26.406Z,936.09
2018-02-03T09:55:26.402Z,936.13
2018-02-03T09:56:26.420Z,936.13
2018-02-03T09:57:26.363Z,936.09
2018-02-03T09:58:26.343Z,936.15
2018-02-03T09:59:26.350Z,936.12
2018-02-03T10:00:26.447Z,936.15
2018-02-03T10:01:26.311Z,936.15
2018-02-03T10:02:26.432Z,936.16
2018-02-03T10:03:26.309Z,936.18
2018-02-03T10:04:26.252Z,936.15
2018-02-03T10:05:26.265Z,936.16
2018-02-03T10:06:26.310Z,936.18
2018-02-03T10:07:26.241Z,936.17
2018-02-03T10:08:26.211Z,936.16
2018-02-03T10:09:26.241Z,936.17
2018-02-03T10:10:26.231Z,936.20
2018-02-03T10:11:26.199Z,936.18
2018-02-03T10:12:26.174Z,936.16
2018-02-03T10:13:26.184Z,936.17
2018-02-03T10:14:26.325Z,936.15
2018-02-03T10:15:26.794Z,936.13
2018-02-03T10:16:26.150Z,936.18
2018-02-03T10:17:26.122Z,936.12
2018-02-03T10:18:26.144Z,936.14
2018-02-03T10:19:26.141Z,936.15
2018-02-03T10:20:26.110Z,936.11
2018-02-03T10:21:26.089Z,936.13
2018-02-03T10:22:26.077Z,936.17
2018-02-03T10:23:26.109Z,936.14
2018-02-03T10:24:26.080Z,936.11
2018-02-03T10:25:26.052Z,936.10
2018-02-03T10:26:26.090Z,936.08
2018-02-03T10:27:26.033Z,936.11
2018-02-03T10:28:26.024Z,936.03
2018-02-03T10:29:26.060Z,936.03
2018-02-03T10:30:26.022Z,936.02
2018-02-03T10:31:25.999Z,936.02
2018-02-03T10:32:25.999Z,935.96
2018-02-03T10:33:26.058Z,935.96
2018-02-03T10:34:25.963Z,935.94
2018-02-03T10:35:25.946Z,935.89
2018-02-03T10:36:25.932Z,935.89
2018-02-03T10:37:25.928Z,935.89
2018-02-03T10:38:25.920Z,935.87
2018-02-03T10:39:25.910Z,935.89
2018-02-03T10:40:25.923Z,935.88
2018-02-03T10:41:25.899Z,935.91
2018-02-03T10:42:25.913Z,935.85
2018-02-03T10:43:25.905Z,935.87
2018-02-03T10:44:25.898Z,935.83
2018-02-03T10:45:25.934Z,935.81
2018-02-03T10:46:25.850Z,935.77
2018-02-03T10:47:25.921Z,935.75
2018-02-03T10:48:25.855Z,935.75
2018-02-03T10:49:25.848Z,935.70
2018-02-03T10:50:25.874Z,935.70
2018-02-03T10:51:25.813Z,935.74
2018-02-03T10:52:25.813Z,935.75
2018-02-03T10:53:25.845Z,935.69
2018-02-03T10:54:26.386Z,935.70
2018-02-03T10:55:25.806Z,935.70
2018-02-03T10:56:25.810Z,935.73
2018-02-03T10:57:25.784Z,935.72
2018-02-03T10:58:25.863Z,935.72
2018-02-03T10:59:25.791Z,935.68
2018-02-03T11:00:25.784Z,935.66
2018-02-03T11:01:25.805Z,935.63
2018-02-03T11:02:25.756Z,935.63
2018-02-03T11:03:25.737Z,935.61
2018-02-03T11:04:25.768Z,935.58
2018-02-03T11:05:25.731Z,935.56
2018-02-03T11:06:25.773Z,935.54
2018-02-03T11:07:25.816Z,935.61
2018-02-03T11:08:25.726Z,935.58
2018-02-03T11:09:25.770Z,935.58
2018-02-03T11:10:25.741Z,935.55
2018-02-03T11:11:25.724Z,935.55
2018-02-03T11:12:25.722Z,935.52
2018-02-03T11:13:25.693Z,935.54
2018-02-03T11:14:25.729Z,935.52
2018-02-03T11:15:25.842Z,935.55
2018-02-03T11:16:25.698Z,935.51
2018-02-03T11:17:25.694Z,935.52
2018-02-03T11:18:25.702Z,935.56
2018-02-03T11:19:25.719Z,935.47
2018-02-03T11:20:25.676Z,935.49
2018-02-03T11:21:25.684Z,935.49
2018-02-03T11:22:25.678Z,935.47
2018-02-03T11:23:26.319Z,935.44
2018-02-03T11:24:25.661Z,935.50
2018-02-03T11:25:25.661Z,935.41
2018-02-03T11:26:25.643Z,935.43
2018-02-03T11:27:25.645Z,935.45
2018-02-03T11:28:25.648Z,935.41
2018-02-03T11:29:25.638Z,935.41
2018-02-03T11:30:25.628Z,935.41
2018-02-03T11:31:25.632Z,935.39
2018-02-03T11:32:25.620Z,935.44
2018-02-03T11:33:25.643Z,935.43
2018-02-03T11:34:25.579Z,935.42
2018-02-03T11:35:25.609Z,935.41
2018-02-03T11:36:25.596Z,935.39
2018-02-03T11:37:25.578Z,935.41
2018-02-03T11:38:25.596Z,935.35
2018-02-03T11:39:26.417Z,935.32
2018-02-03T11:40:26.439Z,935.41
2018-02-03T11:41:25.618Z,935.38
2018-02-03T11:42:25.610Z,935.37
2018-02-03T11:43:26.406Z,935.39
2018-02-03T11:44:25.560Z,935.39
2018-02-03T11:45:25.555Z,935.38
2018-02-03T11:46:25.613Z,935.38
2018-02-03T11:47:25.662Z,935.36
2018-02-03T11:48:25.595Z,935.40
2018-02-03T11:49:25.585Z,935.38
2018-02-03T11:50:25.554Z,935.36
2018-02-03T11:51:25.562Z,935.34
2018-02-03T11:52:25.528Z,935.43
2018-02-03T11:53:25.531Z,935.38
2018-02-03T11:54:25.538Z,935.38
2018-02-03T11:55:25.526Z,935.35
2018-02-03T11:56:25.542Z,935.33
2018-02-03T11:57:25.511Z,935.36
2018-02-03T11:58:25.550Z,935.38
2018-02-03T11:59:25.524Z,935.36
2018-02-03T12:00:25.543Z,935.34
2018-02-03T12:01:25.493Z,935.35
2018-02-03T12:02:25.589Z,935.37
2018-02-03T12:03:25.487Z,935.34
2018-02-03T12:04:25.514Z,935.38
2018-02-03T12:05:25.541Z,935.41
2018-02-03T12:06:25.489Z,935.38
2018-02-03T12:07:25.529Z,935.42
2018-02-03T12:08:25.504Z,935.39
2018-02-03T12:09:25.472Z,935.38
2018-02-03T12:10:25.490Z,935.38
2018-02-03T12:11:25.558Z,935.36
2018-02-03T12:12:25.459Z,935.35
2018-02-03T12:13:25.455Z,935.38
2018-02-03T12:14:25.443Z,935.32
2018-02-03T12:15:25.470Z,935.31
2018-02-03T12:17:25.468Z,935.35
2018-02-03T12:18:25.445Z,935.31
2018-02-03T12:19:25.461Z,935.37
2018-02-03T12:20:25.443Z,935.31
2018-02-03T12:21:25.443Z,935.29
2018-02-03T12:22:25.430Z,935.35
2018-02-03T12:23:46.438Z,935.30
2018-02-03T12:24:25.410Z,935.26
2018-02-03T12:25:25.453Z,935.29
2018-02-03T12:26:25.396Z,935.31
2018-02-03T12:27:25.532Z,935.34
2018-02-03T12:28:25.456Z,935.32
2018-02-03T12:29:46.390Z,935.31